createdAt,value
2022-09-06T00:01:24.530Z,97226.41
2022-09-06T00:03:51.358Z,97232.72
2022-09-06T00:06:20.079Z,97239.78
2022-09-06T00:08:48.118Z,97238.78
2022-09-06T00:11:16.242Z,97244.53
2022-09-06T00:13:43.809Z,97251.50
2022-09-06T00:16:16.727Z,97250.66
2022-09-06T00:18:44.180Z,97245.19
2022-09-06T00:21:29.146Z,97249.31
2022-09-06T00:23:56.095Z,97243.03
2022-09-06T00:26:23.217Z,97246.59
2022-09-06T00:28:50.016Z,97244.84
2022-09-06T00:31:20.138Z,97235.16
2022-09-06T00:33:46.901Z,97240.84
2022-09-06T00:36:13.850Z,97244.09
2022-09-06T00:38:41.463Z,97240.56
2022-09-06T00:41:09.715Z,97255.94
2022-09-06T00:43:36.999Z,97241.22
2022-09-06T00:46:05.100Z,97229.47
2022-09-06T00:48:32.095Z,97242.47
2022-09-06T00:51:03.793Z,97228.25
2022-09-06T00:53:31.146Z,97220.13
2022-09-06T00:55:57.982Z,97224.91
2022-09-06T00:58:25.659Z,97237.06
2022-09-06T01:00:52.495Z,97237.63
2022-09-06T01:03:20.055Z,97238.56
2022-09-06T01:06:08.519Z,97248.53
2022-09-06T01:08:38.031Z,97244.38
2022-09-06T01:11:33.424Z,97247.81
2022-09-06T01:14:12.247Z,97249.00
2022-09-06T01:17:04.953Z,97253.16
2022-09-06T01:20:12.746Z,97257.19
2022-09-06T01:23:07.035Z,97252.13
2022-09-06T01:25:44.256Z,97255.47
2022-09-06T01:28:28.190Z,97264.25
2022-09-06T01:31:33.267Z,97255.66
2022-09-06T01:34:06.406Z,97263.66
2022-09-06T01:36:45.814Z,97257.25
2022-09-06T01:39:32.441Z,97249.97
2022-09-06T01:42:07.033Z,97255.03
2022-09-06T01:44:34.674Z,97253.06
2022-09-06T01:47:32.289Z,97249.25
2022-09-06T01:50:09.925Z,97253.28
2022-09-06T01:53:27.511Z,97246.94
2022-09-06T01:56:18.422Z,97252.78
2022-09-06T01:59:12.824Z,97252.00
2022-09-06T02:02:10.266Z,97252.78
2022-09-06T02:04:39.826Z,97249.94
2022-09-06T02:07:18.678Z,97245.03
2022-09-06T02:09:54.849Z,97237.59
2022-09-06T02:12:24.308Z,97234.81
2022-09-06T02:14:58.911Z,97222.09
2022-09-06T02:17:30.944Z,97220.97
2022-09-06T02:20:15.949Z,97211.25
2022-09-06T02:22:45.377Z,97218.84
2022-09-06T02:25:18.823Z,97219.31
2022-09-06T02:27:45.711Z,97215.00
2022-09-06T02:30:12.574Z,97216.69
2022-09-06T02:32:44.836Z,97214.38
2022-09-06T02:35:15.765Z,97213.50
2022-09-06T02:37:43.498Z,97208.75
2022-09-06T02:40:11.119Z,97208.13
2022-09-06T02:42:38.657Z,97211.88
2022-09-06T02:45:05.677Z,97203.19
2022-09-06T02:47:32.435Z,97190.28
2022-09-06T02:49:59.238Z,97204.84
2022-09-06T02:52:25.906Z,97206.34
2022-09-06T02:54:52.670Z,97204.38
2022-09-06T02:57:19.356Z,97205.06
2022-09-06T02:59:46.342Z,97190.44
2022-09-06T03:02:13.139Z,97195.81
2022-09-06T03:04:39.930Z,97196.13
2022-09-06T03:07:06.610Z,97199.00
2022-09-06T03:09:33.349Z,97193.63
2022-09-06T03:12:00.024Z,97199.16
2022-09-06T03:14:26.763Z,97192.75
2022-09-06T03:16:53.629Z,97182.13
2022-09-06T03:19:21.659Z,97175.81
2022-09-06T03:21:48.470Z,97183.94
2022-09-06T03:24:15.195Z,97179.56
2022-09-06T03:26:41.959Z,97173.25
2022-09-06T03:29:08.642Z,97180.13
2022-09-06T03:31:35.435Z,97179.41
2022-09-06T03:34:02.126Z,97181.53
2022-09-06T03:36:29.706Z,97184.38
2022-09-06T03:38:56.422Z,97189.31
2022-09-06T03:41:23.127Z,97185.81
2022-09-06T03:43:49.782Z,97190.63
2022-09-06T03:46:16.567Z,97198.06
2022-09-06T03:48:43.358Z,97197.19
2022-09-06T03:51:10.090Z,97199.31
2022-09-06T03:53:36.822Z,97200.09
2022-09-06T03:56:03.789Z,97202.34
2022-09-06T03:58:32.195Z,97207.81
2022-09-06T04:01:07.947Z,97212.63
2022-09-06T04:03:35.336Z,97205.81
2022-09-06T04:06:02.498Z,97192.78
2022-09-06T04:08:30.158Z,97200.38
2022-09-06T04:10:57.610Z,97198.06
2022-09-06T04:13:27.344Z,97197.81
2022-09-06T04:15:54.033Z,97206.09
2022-09-06T04:18:21.575Z,97209.59
2022-09-06T04:20:50.022Z,97215.28
2022-09-06T04:23:17.337Z,97215.47
2022-09-06T04:25:50.324Z,97222.41
2022-09-06T04:28:18.544Z,97215.53
2022-09-06T04:30:46.389Z,97209.75
2022-09-06T04:33:13.105Z,97215.16
2022-09-06T04:35:39.823Z,97229.59
2022-09-06T04:38:06.578Z,97221.13
2022-09-06T04:40:33.307Z,97222.47
2022-09-06T04:43:00.078Z,97230.31
2022-09-06T04:45:26.801Z,97226.66
2022-09-06T04:47:53.671Z,97215.75
2022-09-06T04:50:20.351Z,97218.63
2022-09-06T04:52:48.044Z,97215.22
2022-09-06T04:55:14.889Z,97208.34
2022-09-06T04:57:45.792Z,97211.09
2022-09-06T05:00:14.555Z,97219.66
2022-09-06T05:02:41.293Z,97220.63
2022-09-06T05:05:08.566Z,97219.31
2022-09-06T05:07:35.216Z,97227.84
2022-09-06T05:10:02.274Z,97232.22
2022-09-06T05:12:28.971Z,97237.81
2022-09-06T05:14:56.908Z,97247.09
2022-09-06T05:17:23.724Z,97251.38
2022-09-06T05:19:50.461Z,97257.78
2022-09-06T05:22:17.371Z,97262.78
2022-09-06T05:24:44.242Z,97254.56
2022-09-06T05:27:12.691Z,97245.53
2022-09-06T05:29:39.439Z,97249.56
2022-09-06T05:32:06.379Z,97244.31
2022-09-06T05:34:33.159Z,97256.50
2022-09-06T05:36:59.797Z,97244.78
2022-09-06T05:39:26.562Z,97241.94
2022-09-06T05:41:53.291Z,97238.00
2022-09-06T05:44:25.656Z,97221.31
2022-09-06T05:46:53.634Z,97213.31
2022-09-06T05:49:20.375Z,97216.72
2022-09-06T05:51:51.573Z,97212.59
2022-09-06T05:54:18.264Z,97211.22
2022-09-06T05:56:44.992Z,97234.50
2022-09-06T05:59:11.720Z,97247.28
2022-09-06T06:01:50.657Z,97260.56
2022-09-06T06:04:22.418Z,97255.09
2022-09-06T06:06:50.094Z,97223.63
2022-09-06T06:09:23.661Z,97223.19
2022-09-06T06:11:51.107Z,97241.84
2022-09-06T06:14:17.797Z,97233.28
2022-09-06T06:16:44.850Z,97221.84
2022-09-06T06:19:11.743Z,97215.22
2022-09-06T06:21:39.217Z,97214.22
2022-09-06T06:24:06.367Z,97209.75
2022-09-06T06:26:35.959Z,97202.22
2022-09-06T06:29:03.631Z,97195.00
2022-09-06T06:31:31.903Z,97185.63
2022-09-06T06:33:59.452Z,97193.97
2022-09-06T06:36:31.169Z,97181.03
2022-09-06T06:38:58.813Z,97180.84
2022-09-06T06:41:27.063Z,97182.81
2022-09-06T06:43:59.466Z,97175.59
2022-09-06T06:46:28.514Z,97180.25
2022-09-06T06:48:55.476Z,97168.78
2022-09-06T06:51:27.187Z,97172.50
2022-09-06T06:53:54.486Z,97175.03
2022-09-06T06:56:28.414Z,97176.63
2022-09-06T06:58:57.672Z,97174.13
2022-09-06T07:01:26.531Z,97180.38
2022-09-06T07:03:54.487Z,97187.38
2022-09-06T07:06:21.844Z,97187.00
2022-09-06T07:08:49.218Z,97198.28
2022-09-06T07:11:19.482Z,97210.16
2022-09-06T07:13:48.369Z,97197.88
2022-09-06T07:16:19.188Z,97214.09
2022-09-06T07:18:46.283Z,97214.00
2022-09-06T07:24:05.516Z,97224.81
2022-09-06T07:26:33.401Z,97226.47
2022-09-06T07:29:01.463Z,97235.81
2022-09-06T07:34:17.678Z,97243.78
2022-09-06T07:36:44.399Z,97241.03
2022-09-06T07:39:11.163Z,97251.53
2022-09-06T07:41:37.872Z,97243.19
2022-09-06T07:44:04.609Z,97246.03
2022-09-06T07:46:31.331Z,97246.84
2022-09-06T07:48:58.145Z,97242.78
2022-09-06T07:51:24.898Z,97240.63
2022-09-06T07:54:12.810Z,97242.09
2022-09-06T07:56:42.195Z,97242.84
2022-09-06T07:59:09.303Z,97240.03
2022-09-06T08:01:37.937Z,97238.78
2022-09-06T08:04:15.611Z,97244.56
2022-09-06T08:09:35.477Z,97249.31
2022-09-06T08:12:06.978Z,97249.22
2022-09-06T08:14:34.608Z,97254.75
2022-09-06T08:17:02.214Z,97244.31
2022-09-06T08:19:28.971Z,97242.59
2022-09-06T08:21:56.164Z,97245.59
2022-09-06T08:24:22.920Z,97240.19
2022-09-06T08:26:49.859Z,97234.81
2022-09-06T08:29:16.655Z,97235.00
2022-09-06T08:31:44.444Z,97233.13
2022-09-06T08:34:15.225Z,97229.75
2022-09-06T08:36:42.670Z,97236.16
2022-09-06T08:39:10.320Z,97239.06
2022-09-06T08:42:06.505Z,97248.28
2022-09-06T08:45:03.093Z,97249.13
2022-09-06T08:47:21.470Z,97245.06
2022-09-06T08:49:53.094Z,97243.91
2022-09-06T08:52:28.441Z,97249.13
2022-09-06T08:55:22.963Z,97248.59
2022-09-06T08:58:07.801Z,97244.59
2022-09-06T09:00:35.634Z,97246.09
2022-09-06T09:03:21.102Z,97249.09
2022-09-06T09:05:52.315Z,97256.25
2022-09-06T09:08:44.999Z,97252.16
2022-09-06T09:11:22.476Z,97248.06
2022-09-06T09:14:04.389Z,97245.38
2022-09-06T09:16:32.149Z,97245.53
2022-09-06T09:19:01.686Z,97251.31
2022-09-06T09:21:32.262Z,97248.13
2022-09-06T09:24:03.611Z,97255.38
2022-09-06T09:26:45.244Z,97258.22
2022-09-06T09:29:13.793Z,97254.03
2022-09-06T09:31:42.462Z,97250.63
2022-09-06T09:34:12.445Z,97254.84
2022-09-06T09:36:40.101Z,97252.06
2022-09-06T09:39:11.191Z,97254.28
2022-09-06T09:41:40.456Z,97248.22
2022-09-06T09:44:16.653Z,97261.03
2022-09-06T09:46:43.834Z,97250.81
2022-09-06T09:49:25.034Z,97260.78
2022-09-06T09:52:06.777Z,97251.75
2022-09-06T09:54:38.368Z,97261.56
2022-09-06T09:57:11.820Z,97257.28
2022-09-06T09:59:54.260Z,97251.56
2022-09-06T10:02:29.016Z,97247.31
2022-09-06T10:05:15.980Z,97245.88
2022-09-06T10:07:51.458Z,97250.13
2022-09-06T10:10:25.128Z,97235.47
2022-09-06T10:13:31.732Z,97243.97
2022-09-06T10:15:59.691Z,97235.56
2022-09-06T10:18:35.960Z,97243.19
2022-09-06T10:21:06.582Z,97226.25
2022-09-06T10:26:56.850Z,97212.53
2022-09-06T10:29:32.793Z,97221.06
2022-09-06T10:32:31.128Z,97214.91
2022-09-06T10:35:24.143Z,97210.91
2022-09-06T10:38:18.630Z,97212.44
2022-09-06T10:41:07.777Z,97198.53
2022-09-06T10:44:18.166Z,97204.25
2022-09-06T10:46:48.672Z,97206.41
2022-09-06T10:49:19.554Z,97202.16
2022-09-06T10:52:00.349Z,97197.91
2022-09-06T10:54:30.734Z,97188.09
2022-09-06T10:57:03.719Z,97190.91
2022-09-06T10:59:41.982Z,97196.53
2022-09-06T11:02:17.957Z,97188.81
2022-09-06T11:07:38.136Z,97188.13
2022-09-06T11:10:22.179Z,97183.94
2022-09-06T11:12:54.647Z,97198.00
2022-09-06T11:15:23.015Z,97186.78
2022-09-06T11:17:58.430Z,97186.09
2022-09-06T11:20:39.479Z,97191.69
2022-09-06T11:23:38.009Z,97190.28
2022-09-06T11:26:17.587Z,97190.94
2022-09-06T11:28:48.658Z,97192.97
2022-09-06T11:34:28.418Z,97197.81
2022-09-06T11:36:57.319Z,97195.72
2022-09-06T11:42:46.406Z,97192.34
2022-09-06T11:45:22.621Z,97194.47
2022-09-06T11:47:51.270Z,97190.25
2022-09-06T11:50:20.954Z,97181.16
2022-09-06T11:53:06.463Z,97197.31
2022-09-06T11:55:46.589Z,97183.25
2022-09-06T11:58:20.929Z,97188.81
2022-09-06T12:01:28.171Z,97179.69
2022-09-06T12:04:06.507Z,97177.50
2022-09-06T12:06:39.687Z,97167.66
2022-09-06T12:09:29.545Z,97175.28
2022-09-06T12:11:56.699Z,97165.47
2022-09-06T12:14:52.836Z,97164.00
2022-09-06T12:17:20.651Z,97154.91
2022-09-06T12:20:06.113Z,97153.47
2022-09-06T12:22:35.284Z,97155.56
2022-09-06T12:25:23.903Z,97151.38
2022-09-06T12:27:54.071Z,97152.91
2022-09-06T12:30:43.366Z,97141.88
2022-09-06T12:33:20.878Z,97139.94
2022-09-06T12:36:05.822Z,97136.47
2022-09-06T12:38:34.353Z,97135.75
2022-09-06T12:41:01.951Z,97130.06
2022-09-06T12:43:29.653Z,97132.13
2022-09-06T12:45:56.520Z,97137.72
2022-09-06T12:48:35.406Z,97137.63
2022-09-06T12:51:06.266Z,97136.84
2022-09-06T12:53:34.908Z,97138.22
2022-09-06T12:56:07.654Z,97131.19
2022-09-06T12:58:35.717Z,97127.69
2022-09-06T13:01:16.146Z,97123.44
2022-09-06T13:03:56.359Z,97124.81
2022-09-06T13:06:27.159Z,97110.75
2022-09-06T13:08:57.004Z,97116.50
2022-09-06T13:11:31.495Z,97113.69
2022-09-06T13:13:58.593Z,97110.78
2022-09-06T13:16:28.321Z,97112.13
2022-09-06T13:18:55.062Z,97097.84
2022-09-06T13:21:32.870Z,97103.38
2022-09-06T13:24:03.858Z,97113.84
2022-09-06T13:26:38.785Z,97098.34
2022-09-06T13:29:17.596Z,97102.63
2022-09-06T13:31:52.359Z,97101.28
2022-09-06T13:34:24.546Z,97095.00
2022-09-06T13:36:53.978Z,97094.34
2022-09-06T13:39:53.267Z,97084.63
2022-09-06T13:42:31.610Z,97079.84
2022-09-06T13:45:01.924Z,97077.03
2022-09-06T13:47:29.830Z,97077.03
2022-09-06T13:49:56.635Z,97071.41
2022-09-06T13:52:23.442Z,97062.97
2022-09-06T13:54:50.159Z,97056.63
2022-09-06T13:57:19.994Z,97058.78
2022-09-06T13:59:50.268Z,97055.97
2022-09-06T14:02:19.562Z,97051.75
2022-09-06T14:04:46.345Z,97053.16
2022-09-06T14:07:13.114Z,97039.75
2022-09-06T14:09:39.967Z,97040.56
2022-09-06T14:12:06.947Z,97046.22
2022-09-06T14:14:34.379Z,97044.97
2022-09-06T14:17:01.156Z,97044.25
2022-09-06T14:19:28.819Z,97042.13
2022-09-06T14:21:55.472Z,97034.41
2022-09-06T14:24:22.309Z,97033.66
2022-09-06T14:26:49.327Z,97041.28
2022-09-06T14:29:16.365Z,97030.59
2022-09-06T14:31:43.102Z,97029.81
2022-09-06T14:34:09.891Z,97029.84
2022-09-06T14:36:36.673Z,97039.63
2022-09-06T14:39:04.151Z,97021.97
2022-09-06T14:41:31.165Z,97028.25
2022-09-06T14:43:58.737Z,97022.59
2022-09-06T14:46:27.551Z,97014.91
2022-09-06T14:49:07.184Z,97011.34
2022-09-06T14:51:34.733Z,97005.78
2022-09-06T14:54:07.307Z,96997.41
2022-09-06T14:56:34.458Z,96998.22
2022-09-06T14:59:01.189Z,97001.75
2022-09-06T15:01:34.123Z,96996.78
2022-09-06T15:04:05.640Z,96997.47
2022-09-06T15:06:33.543Z,96992.56
2022-09-06T15:09:00.721Z,96990.44
2022-09-06T15:11:39.462Z,96989.81
2022-09-06T15:14:15.441Z,96991.97
2022-09-06T15:16:42.900Z,96980.75
2022-09-06T15:19:10.271Z,96977.88
2022-09-06T15:21:37.106Z,96971.97
2022-09-06T15:24:07.328Z,96971.56
2022-09-06T15:26:36.654Z,96968.84
2022-09-06T15:29:03.583Z,96963.63
2022-09-06T15:31:34.079Z,96953.44
2022-09-06T15:34:02.753Z,96955.22
2022-09-06T15:36:29.953Z,96967.16
2022-09-06T15:39:01.266Z,96950.25
2022-09-06T15:41:30.910Z,96944.88
2022-09-06T15:44:01.938Z,96929.69
2022-09-06T15:46:36.383Z,96921.53
2022-09-06T15:49:07.301Z,96922.59
2022-09-06T15:51:35.350Z,96920.88
2022-09-06T15:54:02.022Z,96921.31
2022-09-06T15:56:28.651Z,96917.59
2022-09-06T15:58:55.313Z,96901.38
2022-09-06T16:01:22.762Z,96884.84
2022-09-06T16:03:55.118Z,96875.56
2022-09-06T16:06:27.789Z,96868.53
2022-09-06T16:09:07.386Z,96872.19
2022-09-06T16:11:36.607Z,96880.28
2022-09-06T16:14:09.586Z,96867.97
2022-09-06T16:16:37.030Z,96861.47
2022-09-06T16:19:03.981Z,96860.84
2022-09-06T16:21:32.375Z,96848.53
2022-09-06T16:24:09.402Z,96852.50
2022-09-06T16:26:38.447Z,96844.59
2022-09-06T16:29:06.973Z,96843.28
2022-09-06T16:31:39.702Z,96845.25
2022-09-06T16:34:10.953Z,96833.06
2022-09-06T16:36:37.945Z,96830.75
2022-09-06T16:39:04.900Z,96831.03
2022-09-06T16:41:37.560Z,96837.03
2022-09-06T16:44:04.574Z,96835.94
2022-09-06T16:46:31.503Z,96831.34
2022-09-06T16:49:05.973Z,96840.81
2022-09-06T16:51:32.931Z,96838.00
2022-09-06T16:54:00.680Z,96843.03
2022-09-06T16:56:31.945Z,96840.69
2022-09-06T16:59:00.254Z,96849.19
2022-09-06T17:01:28.314Z,96852.97
2022-09-06T17:03:55.562Z,96856.97
2022-09-06T17:06:23.142Z,96862.44
2022-09-06T17:08:50.918Z,96867.28
2022-09-06T17:11:20.594Z,96867.75
2022-09-06T17:13:49.457Z,96870.63
2022-09-06T17:16:35.866Z,96868.31
2022-09-06T17:19:04.306Z,96866.59
2022-09-06T17:21:31.539Z,96867.44
2022-09-06T17:24:01.888Z,96866.78
2022-09-06T17:26:29.207Z,96865.41
2022-09-06T17:28:57.116Z,96875.19
2022-09-06T17:31:25.942Z,96872.25
2022-09-06T17:33:53.660Z,96876.34
2022-09-06T17:36:25.161Z,96871.28
2022-09-06T17:38:54.171Z,96865.47
2022-09-06T17:41:21.918Z,96867.41
2022-09-06T17:43:48.958Z,96863.69
2022-09-06T17:46:16.226Z,96863.44
2022-09-06T17:48:43.595Z,96859.69
2022-09-06T17:51:11.694Z,96853.84
2022-09-06T17:53:39.097Z,96854.28
2022-09-06T17:56:07.718Z,96856.88
2022-09-06T17:58:36.684Z,96865.63
2022-09-06T18:01:12.056Z,96866.06
2022-09-06T18:03:41.310Z,96859.53
2022-09-06T18:06:10.889Z,96863.59
2022-09-06T18:08:40.048Z,96861.41
2022-09-06T18:11:27.604Z,96859.78
2022-09-06T18:13:56.863Z,96852.00
2022-09-06T18:16:24.939Z,96853.22
2022-09-06T18:18:57.230Z,96874.53
2022-09-06T18:21:26.394Z,96872.09
2022-09-06T18:23:56.114Z,96872.59
2022-09-06T18:26:24.013Z,96872.56
2022-09-06T18:28:52.934Z,96874.53
2022-09-06T18:31:23.207Z,96877.78
2022-09-06T18:33:50.803Z,96885.19
2022-09-06T18:36:18.642Z,96891.31
2022-09-06T18:38:46.221Z,96887.75
2022-09-06T18:41:35.194Z,96884.97
2022-09-06T18:44:03.773Z,96889.13
2022-09-06T18:46:32.718Z,96890.50
2022-09-06T18:49:00.086Z,96888.38
2022-09-06T18:51:27.701Z,96889.75
2022-09-06T18:53:57.348Z,96889.00
2022-09-06T18:56:25.030Z,96893.91
2022-09-06T18:59:02.294Z,96891.09
2022-09-06T19:01:30.418Z,96881.97
2022-09-06T19:03:58.681Z,96884.81
2022-09-06T19:06:28.363Z,96875.84
2022-09-06T19:08:59.459Z,96884.94
2022-09-06T19:11:26.618Z,96874.50
2022-09-06T19:13:55.075Z,96875.19
2022-09-06T19:16:23.306Z,96881.97
2022-09-06T19:18:51.013Z,96876.97
2022-09-06T19:21:22.175Z,96879.19
2022-09-06T19:23:59.237Z,96873.69
2022-09-06T19:26:28.588Z,96868.72
2022-09-06T19:29:17.877Z,96862.28
2022-09-06T19:31:46.459Z,96875.28
2022-09-06T19:34:15.666Z,96873.78
2022-09-06T19:36:44.805Z,96883.44
2022-09-06T19:39:15.600Z,96873.59
2022-09-06T19:41:44.959Z,96876.38
2022-09-06T19:44:11.798Z,96881.28
2022-09-06T19:46:43.719Z,96879.38
2022-09-06T19:49:12.725Z,96886.34
2022-09-06T19:51:39.825Z,96884.06
2022-09-06T19:54:06.619Z,96889.44
2022-09-06T19:56:34.829Z,96896.38
2022-09-06T19:59:07.347Z,96897.75
2022-09-06T20:01:35.491Z,96900.53
2022-09-06T20:04:05.052Z,96904.06
2022-09-06T20:06:31.987Z,96899.19
2022-09-06T20:08:59.970Z,96906.03
2022-09-06T20:11:28.829Z,96905.25
2022-09-06T20:13:56.020Z,96898.25
2022-09-06T20:16:26.775Z,96895.97
2022-09-06T20:18:59.047Z,96901.44
2022-09-06T20:21:27.087Z,96899.91
2022-09-06T20:23:55.578Z,96891.47
2022-09-06T20:26:23.957Z,96892.88
2022-09-06T20:28:55.894Z,96881.97
2022-09-06T20:31:23.189Z,96885.63
2022-09-06T20:33:50.112Z,96883.72
2022-09-06T20:36:17.986Z,96888.63
2022-09-06T20:38:45.887Z,96882.28
2022-09-06T20:41:15.465Z,96883.50
2022-09-06T20:43:42.578Z,96884.88
2022-09-06T20:46:20.049Z,96889.84
2022-09-06T20:48:47.250Z,96880.22
2022-09-06T20:51:18.748Z,96885.81
2022-09-06T20:53:48.113Z,96874.00
2022-09-06T20:56:19.282Z,96884.41
2022-09-06T20:58:53.962Z,96877.34
2022-09-06T21:01:22.968Z,96869.56
2022-09-06T21:03:54.507Z,96878.41
2022-09-06T21:06:21.922Z,96871.06
2022-09-06T21:08:49.691Z,96872.84
2022-09-06T21:11:16.936Z,96880.25
2022-09-06T21:13:43.906Z,96879.38
2022-09-06T21:16:11.059Z,96883.56
2022-09-06T21:18:37.838Z,96877.16
2022-09-06T21:21:06.694Z,96872.19
2022-09-06T21:23:36.770Z,96874.97
2022-09-06T21:26:10.158Z,96869.41
2022-09-06T21:28:39.778Z,96868.66
2022-09-06T21:31:14.971Z,96862.31
2022-09-06T21:33:43.677Z,96849.56
2022-09-06T21:36:12.438Z,96855.59
2022-09-06T21:38:40.861Z,96853.84
2022-09-06T21:41:08.910Z,96866.78
2022-09-06T21:43:36.046Z,96868.97
2022-09-06T21:46:07.423Z,96876.72
2022-09-06T21:48:38.622Z,96877.53
2022-09-06T21:51:09.933Z,96885.31
2022-09-06T21:53:37.542Z,96879.78
2022-09-06T21:56:05.398Z,96883.72
2022-09-06T21:58:33.030Z,96883.63
2022-09-06T22:01:01.340Z,96882.94
2022-09-06T22:03:30.303Z,96883.53
2022-09-06T22:05:57.662Z,96881.50
2022-09-06T22:08:25.425Z,96880.06
2022-09-06T22:10:52.307Z,96886.28
2022-09-06T22:13:20.402Z,96890.44
2022-09-06T22:15:47.366Z,96881.88
2022-09-06T22:18:14.089Z,96884.59
2022-09-06T22:20:40.831Z,96884.59
2022-09-06T22:23:08.442Z,96887.25
2022-09-06T22:25:35.276Z,96871.84
2022-09-06T22:28:02.157Z,96876.53
2022-09-06T22:30:28.900Z,96874.94
2022-09-06T22:32:55.976Z,96883.31
2022-09-06T22:35:22.691Z,96882.66
2022-09-06T22:37:49.323Z,96881.16
2022-09-06T22:40:16.182Z,96880.38
2022-09-06T22:42:43.409Z,96876.31
2022-09-06T22:45:10.370Z,96870.06
2022-09-06T22:47:37.065Z,96884.41
2022-09-06T22:50:04.093Z,96885.63
2022-09-06T22:52:30.769Z,96878.13
2022-09-06T22:54:57.533Z,96884.44
2022-09-06T22:57:25.672Z,96883.72
2022-09-06T22:59:52.384Z,96884.44
2022-09-06T23:02:19.030Z,96887.22
2022-09-06T23:04:46.411Z,96888.66
2022-09-06T23:07:13.123Z,96890.19
2022-09-06T23:09:39.954Z,96887.34
2022-09-06T23:12:06.922Z,96897.03
2022-09-06T23:14:33.706Z,96887.88
2022-09-06T23:17:00.395Z,96883.69
2022-09-06T23:19:27.214Z,96886.63
2022-09-06T23:21:53.858Z,96883.28
2022-09-06T23:24:20.653Z,96877.19
2022-09-06T23:26:47.385Z,96875.31
2022-09-06T23:29:14.354Z,96867.81
2022-09-06T23:31:42.635Z,96870.72
2022-09-06T23:34:09.405Z,96879.16
2022-09-06T23:36:36.143Z,96940.81
2022-09-06T23:39:02.969Z,96949.03
2022-09-06T23:41:30.057Z,96949.63
2022-09-06T23:43:57.474Z,96943.72
2022-09-06T23:46:24.171Z,96958.00
2022-09-06T23:48:50.998Z,96960.31
2022-09-06T23:51:17.805Z,96948.63
2022-09-06T23:53:44.915Z,96959.00
2022-09-06T23:56:11.722Z,96956.16
2022-09-06T23:58:38.592Z,96955.00
